Time;durP1;ratioP1;P1;durP2;ratioP2;P2;SDS_P1;SDS_P2;PMS_P1;PMS_P2;Temp;Humidity;BMP_temperature;BMP_pressure;BME280_temperature;BME280_humidity;BME280_pressure;Samples;Min_cycle;Max_cycle;Signal;HPM_P1;HPM_P2
2023/01/11 00:02:22;;;;;;;18.10;10.90;;;;;;;-128.00;-1.00;-1.00;100968;1304;1004525;-33
2023/01/11 00:04:48;;;;;;;17.40;7.70;;;;;;;-128.00;-1.00;-1.00;100975;1304;1004627;-32
2023/01/11 00:07:13;;;;;;;18.30;9.60;;;;;;;-128.00;-1.00;-1.00;100961;1304;1004991;-33
2023/01/11 00:09:39;;;;;;;17.70;7.60;;;;;;;-128.00;-1.00;-1.00;101009;1305;1004661;-29
2023/01/11 00:12:05;;;;;;;19.30;7.50;;;;;;;-128.00;-1.00;-1.00;100902;1304;1004130;-33
2023/01/11 00:14:30;;;;;;;23.00;10.60;;;;;;;-128.00;-1.00;-1.00;100958;1304;1004471;-29
2023/01/11 00:16:58;;;;;;;23.20;9.10;;;;;;;-128.00;-1.00;-1.00;100984;1304;1004335;-34
2023/01/11 00:19:23;;;;;;;27.20;8.00;;;;;;;-128.00;-1.00;-1.00;101023;1304;1004898;-29
2023/01/11 00:21:49;;;;;;;22.20;12.20;;;;;;;-128.00;-1.00;-1.00;100954;1304;1004785;-33
2023/01/11 00:24:15;;;;;;;16.20;7.00;;;;;;;-128.00;-1.00;-1.00;101058;1304;1004968;-34
2023/01/11 00:26:40;;;;;;;12.40;7.80;;;;;;;-128.00;-1.00;-1.00;100954;1304;1005074;-33
2023/01/11 00:29:06;;;;;;;20.30;8.80;;;;;;;-128.00;-1.00;-1.00;101014;1304;1004961;-33
2023/01/11 00:31:31;;;;;;;16.30;7.70;;;;;;;-128.00;-1.00;-1.00;100968;1304;1004553;-35
2023/01/11 00:33:57;;;;;;;9.80;6.80;;;;;;;-128.00;-1.00;-1.00;100969;1304;1004744;-30
2023/01/11 00:36:23;;;;;;;10.70;7.00;;;;;;;-128.00;-1.00;-1.00;100870;1304;1004416;-30
2023/01/11 00:38:52;;;;;;;14.90;9.40;;;;;;;-128.00;-1.00;-1.00;100911;1304;1004472;-34
2023/01/11 00:48:45;;;;;;;33.10;15.60;;;;;;;-128.00;-1.00;-1.00;100963;1305;1004428;-34
2023/01/11 00:51:11;;;;;;;17.20;9.50;;;;;;;-128.00;-1.00;-1.00;100872;1305;1004959;-30
2023/01/11 00:53:36;;;;;;;17.30;9.50;;;;;;;-128.00;-1.00;-1.00;100879;1305;1004617;-31
2023/01/11 00:56:02;;;;;;;24.50;10.10;;;;;;;-128.00;-1.00;-1.00;100874;1305;1003997;-34
2023/01/11 00:58:28;;;;;;;9.60;6.40;;;;;;;-128.00;-1.00;-1.00;100916;1305;1004599;-38
2023/01/11 01:00:56;;;;;;;10.40;6.90;;;;;;;-128.00;-1.00;-1.00;100956;1305;1003884;-35
2023/01/11 01:03:21;;;;;;;12.50;7.80;;;;;;;-128.00;-1.00;-1.00;100938;1304;1004562;-30
2023/01/11 01:05:47;;;;;;;12.30;6.90;;;;;;;-128.00;-1.00;-1.00;101036;1305;1004051;-29
2023/01/11 01:08:13;;;;;;;24.20;8.40;;;;;;;-128.00;-1.00;-1.00;100873;1304;1004779;-34
2023/01/11 01:10:38;;;;;;;15.60;7.90;;;;;;;-128.00;-1.00;-1.00;101061;1304;1003938;-31
2023/01/11 01:15:33;;;;;;;18.40;9.50;;;;;;;-128.00;-1.00;-1.00;100985;1305;1004843;-31
2023/01/11 01:17:58;;;;;;;21.30;10.40;;;;;;;-128.00;-1.00;-1.00;100929;1305;1005020;-34
2023/01/11 01:20:24;;;;;;;18.80;11.00;;;;;;;-128.00;-1.00;-1.00;100959;1305;1004623;-30
2023/01/11 01:22:50;;;;;;;14.70;9.30;;;;;;;-128.00;-1.00;-1.00;100958;1304;1004334;-31
2023/01/11 01:25:16;;;;;;;23.90;10.90;;;;;;;-128.00;-1.00;-1.00;100925;1304;1004814;-35
2023/01/11 01:27:41;;;;;;;18.40;11.50;;;;;;;-128.00;-1.00;-1.00;100853;1305;1005008;-30
2023/01/11 01:30:07;;;;;;;21.30;14.60;;;;;;;-128.00;-1.00;-1.00;100934;1305;1003980;-31
2023/01/11 01:32:33;;;;;;;23.20;13.50;;;;;;;-128.00;-1.00;-1.00;100909;1305;1004421;-29
2023/01/11 01:34:59;;;;;;;24.50;12.50;;;;;;;-128.00;-1.00;-1.00;100874;1304;1004338;-33
2023/01/11 01:37:24;;;;;;;33.40;19.40;;;;;;;-128.00;-1.00;-1.00;100941;1305;1004544;-33
2023/01/11 01:39:50;;;;;;;19.10;13.10;;;;;;;-128.00;-1.00;-1.00;100911;1305;1004850;-29
2023/01/11 01:42:18;;;;;;;20.50;13.60;;;;;;;-128.00;-1.00;-1.00;100918;1305;1003476;-33
2023/01/11 01:44:57;;;;;;;21.50;13.70;;;;;;;-128.00;-1.00;-1.00;101031;1305;1004623;-33
2023/01/11 01:47:36;;;;;;;19.50;11.70;;;;;;;-128.00;-1.00;-1.00;100951;1305;1004685;-29
2023/01/11 01:50:12;;;;;;;32.10;11.10;;;;;;;-128.00;-1.00;-1.00;100895;1304;1003955;-34
2023/01/11 01:52:38;;;;;;;23.80;13.40;;;;;;;-128.00;-1.00;-1.00;100970;1305;1004820;-33
2023/01/11 01:55:06;;;;;;;26.60;12.10;;;;;;;-128.00;-1.00;-1.00;101012;1305;1005053;-31
2023/01/11 01:57:33;;;;;;;21.10;12.80;;;;;;;-128.00;-1.00;-1.00;101020;1301;1004071;-34
2023/01/11 02:00:00;;;;;;;17.10;9.10;;;;;;;-128.00;-1.00;-1.00;100870;1305;1004903;-31
2023/01/11 02:02:26;;;;;;;22.30;11.10;;;;;;;-128.00;-1.00;-1.00;100998;1305;1004111;-30
2023/01/11 02:04:52;;;;;;;25.20;12.30;;;;;;;-128.00;-1.00;-1.00;100803;1305;1004727;-34
2023/01/11 02:07:33;;;;;;;20.80;11.90;;;;;;;-128.00;-1.00;-1.00;100944;1305;1004441;-31
2023/01/11 02:10:13;;;;;;;19.40;11.10;;;;;;;-128.00;-1.00;-1.00;100950;1304;1004514;-34
2023/01/11 02:12:46;;;;;;;19.90;11.30;;;;;;;-128.00;-1.00;-1.00;100976;1297;1004729;-30
2023/01/11 02:15:11;;;;;;;12.80;8.20;;;;;;;-128.00;-1.00;-1.00;100895;1305;1004353;-34
2023/01/11 02:17:37;;;;;;;19.40;10.60;;;;;;;-128.00;-1.00;-1.00;100952;1304;1004902;-30
2023/01/11 02:20:26;;;;;;;21.30;12.90;;;;;;;-128.00;-1.00;-1.00;101006;1304;1003913;-31
2023/01/11 02:23:20;;;;;;;21.90;14.00;;;;;;;-128.00;-1.00;-1.00;100911;1302;1004196;-32
2023/01/11 02:25:58;;;;;;;32.70;17.10;;;;;;;-128.00;-1.00;-1.00;100219;1305;1004288;-34
2023/01/11 02:28:31;;;;;;;25.10;13.70;;;;;;;-128.00;-1.00;-1.00;100262;1304;1004404;-30
2023/01/11 02:31:22;;;;;;;13.50;8.30;;;;;;;-128.00;-1.00;-1.00;100950;1304;1005631;-33
2023/01/11 02:34:11;;;;;;;24.70;12.80;;;;;;;-128.00;-1.00;-1.00;100897;1304;1004508;-30
2023/01/11 02:37:00;;;;;;;20.80;12.50;;;;;;;-128.00;-1.00;-1.00;100957;1304;1004845;-31
2023/01/11 02:39:51;;;;;;;21.80;12.20;;;;;;;-128.00;-1.00;-1.00;100900;1305;1004629;-34
2023/01/11 02:45:18;;;;;;;13.40;9.70;;;;;;;-128.00;-1.00;-1.00;101060;1305;1003651;-29
2023/01/11 02:48:01;;;;;;;15.90;8.70;;;;;;;-128.00;-1.00;-1.00;100974;1305;1003728;-34
2023/01/11 02:50:32;;;;;;;19.10;9.50;;;;;;;-128.00;-1.00;-1.00;101126;1305;1002799;-30
2023/01/11 02:53:17;;;;;;;13.90;7.10;;;;;;;-128.00;-1.00;-1.00;101024;1305;1003216;-34
2023/01/11 02:55:47;;;;;;;13.50;7.80;;;;;;;-128.00;-1.00;-1.00;101002;1305;1003793;-33
2023/01/11 02:58:12;;;;;;;12.60;7.80;;;;;;;-128.00;-1.00;-1.00;101158;1305;1003246;-29
2023/01/11 03:00:39;;;;;;;21.30;9.00;;;;;;;-128.00;-1.00;-1.00;100254;1305;1003288;-33
2023/01/11 03:03:08;;;;;;;18.00;11.40;;;;;;;-128.00;-1.00;-1.00;101021;1305;1002883;-33
2023/01/11 03:05:36;;;;;;;14.50;9.00;;;;;;;-128.00;-1.00;-1.00;101035;1305;1003509;-33
2023/01/11 03:08:11;;;;;;;32.30;14.50;;;;;;;-128.00;-1.00;-1.00;101046;1302;1003176;-29
2023/01/11 03:10:50;;;;;;;36.40;15.30;;;;;;;-128.00;-1.00;-1.00;101085;1305;1002868;-29
2023/01/11 03:13:39;;;;;;;16.90;10.50;;;;;;;-128.00;-1.00;-1.00;100330;1305;1003082;-34
2023/01/11 03:16:20;;;;;;;13.40;9.10;;;;;;;-128.00;-1.00;-1.00;101019;1305;1004992;-34
2023/01/11 03:19:08;;;;;;;23.90;13.00;;;;;;;-128.00;-1.00;-1.00;101080;1303;1004301;-30
2023/01/11 03:21:51;;;;;;;19.60;9.00;;;;;;;-128.00;-1.00;-1.00;101034;1305;1003848;-29
2023/01/11 03:24:27;;;;;;;23.90;11.60;;;;;;;-128.00;-1.00;-1.00;101048;1305;1003740;-31
2023/01/11 03:27:03;;;;;;;15.20;8.50;;;;;;;-128.00;-1.00;-1.00;99689;1305;1003297;-31
2023/01/11 03:29:32;;;;;;;16.70;9.40;;;;;;;-128.00;-1.00;-1.00;100937;1305;1003213;-30
2023/01/11 03:32:22;;;;;;;14.60;8.60;;;;;;;-128.00;-1.00;-1.00;101102;1303;1003449;-34
2023/01/11 03:34:58;;;;;;;14.20;8.40;;;;;;;-128.00;-1.00;-1.00;101026;1305;1005117;-34
2023/01/11 03:37:37;;;;;;;20.90;9.40;;;;;;;-128.00;-1.00;-1.00;101105;1297;1003055;-35
2023/01/11 03:40:09;;;;;;;16.90;8.30;;;;;;;-128.00;-1.00;-1.00;101148;1305;1003200;-34
2023/01/11 03:43:09;;;;;;;15.90;7.30;;;;;;;-128.00;-1.00;-1.00;101074;1305;1004449;-30
2023/01/11 03:45:22;;;;;;;24.50;10.40;;;;;;;-128.00;-1.00;-1.00;101143;1305;1004250;-30
2023/01/11 03:47:47;;;;;;;11.60;6.50;;;;;;;-128.00;-1.00;-1.00;100369;1305;1004492;-30
2023/01/11 03:50:13;;;;;;;24.30;11.30;;;;;;;-128.00;-1.00;-1.00;101056;1305;1004154;-30
2023/01/11 03:52:40;;;;;;;27.00;13.90;;;;;;;-128.00;-1.00;-1.00;101171;1305;1003012;-29
2023/01/11 03:55:07;;;;;;;30.30;11.00;;;;;;;-128.00;-1.00;-1.00;101166;1305;1004747;-29
2023/01/11 03:57:35;;;;;;;20.80;8.80;;;;;;;-128.00;-1.00;-1.00;100958;1305;1005408;-30
2023/01/11 04:00:01;;;;;;;22.60;8.70;;;;;;;-128.00;-1.00;-1.00;100297;1305;1003347;-30
2023/01/11 04:02:32;;;;;;;21.30;11.10;;;;;;;-128.00;-1.00;-1.00;101002;1305;1003903;-34
2023/01/11 04:04:58;;;;;;;22.50;9.90;;;;;;;-128.00;-1.00;-1.00;101043;1305;1003200;-35
2023/01/11 04:07:24;;;;;;;22.00;10.70;;;;;;;-128.00;-1.00;-1.00;101045;1305;1004202;-29
2023/01/11 04:09:50;;;;;;;20.20;9.40;;;;;;;-128.00;-1.00;-1.00;99547;1305;1003224;-35
2023/01/11 04:12:15;;;;;;;19.20;9.40;;;;;;;-128.00;-1.00;-1.00;101143;1305;1003608;-31
2023/01/11 04:14:41;;;;;;;18.80;8.60;;;;;;;-128.00;-1.00;-1.00;100271;1305;1003253;-35
2023/01/11 04:17:06;;;;;;;17.90;9.70;;;;;;;-128.00;-1.00;-1.00;100347;1305;1003581;-30
2023/01/11 04:19:32;;;;;;;15.20;8.50;;;;;;;-128.00;-1.00;-1.00;100359;1305;1005159;-35
2023/01/11 04:21:57;;;;;;;16.40;8.50;;;;;;;-128.00;-1.00;-1.00;99555;1305;2002850;-31
2023/01/11 04:24:23;;;;;;;24.70;10.50;;;;;;;-128.00;-1.00;-1.00;99568;1305;1004514;-35
2023/01/11 04:26:49;;;;;;;19.00;10.20;;;;;;;-128.00;-1.00;-1.00;101077;1305;1003455;-31
2023/01/11 04:29:14;;;;;;;31.30;15.30;;;;;;;-128.00;-1.00;-1.00;100338;1305;1003764;-35
2023/01/11 04:31:40;;;;;;;37.80;19.40;;;;;;;-128.00;-1.00;-1.00;100238;1305;1003942;-34
2023/01/11 04:34:05;;;;;;;22.00;11.50;;;;;;;-128.00;-1.00;-1.00;100983;1305;1002332;-35
2023/01/11 05:14:47;;;;;;;45.20;21.00;;;;;;;-102.69;19.20;19967.78;100920;1305;1545277;-34
2023/01/11 05:17:14;;;;;;;35.30;11.80;;;;;;;-128.00;-1.00;-1.00;100740;1304;1003490;-30
2023/01/11 05:19:39;;;;;;;32.80;13.70;;;;;;;-128.00;-1.00;-1.00;101256;1305;1003810;-30
2023/01/11 05:22:06;;;;;;;30.60;13.40;;;;;;;-128.00;-1.00;-1.00;101255;1305;1003225;-33
2023/01/11 05:24:31;;;;;;;23.50;11.70;;;;;;;-128.00;-1.00;-1.00;101157;1305;1003187;-30
2023/01/11 05:26:57;;;;;;;28.30;12.40;;;;;;;-128.00;-1.00;-1.00;101062;1305;1004333;-31
2023/01/11 05:29:22;;;;;;;35.80;15.20;;;;;;;-128.00;-1.00;-1.00;101121;1305;1002833;-30
2023/01/11 05:31:48;;;;;;;37.90;13.40;;;;;;;-128.00;-1.00;-1.00;101054;1305;1003522;-30
2023/01/11 05:34:14;;;;;;;28.60;13.90;;;;;;;-128.00;-1.00;-1.00;101124;1305;1003241;-35
2023/01/11 05:36:40;;;;;;;39.20;14.30;;;;;;;-128.00;-1.00;-1.00;101092;1305;1004066;-34
2023/01/11 05:39:06;;;;;;;49.50;14.70;;;;;;;-128.00;-1.00;-1.00;101187;1305;1003720;-30
2023/01/11 05:41:32;;;;;;;32.10;15.10;;;;;;;-128.00;-1.00;-1.00;101094;1305;1003582;-34
2023/01/11 05:46:27;;;;;;;49.90;17.00;;;;;;;-128.00;-1.00;-1.00;100435;1305;1004244;-34
2023/01/11 05:48:56;;;;;;;33.40;15.00;;;;;;;-128.00;-1.00;-1.00;98881;1305;1003544;-31
2023/01/11 05:51:21;;;;;;;34.80;14.90;;;;;;;-128.00;-1.00;-1.00;101265;1304;1004176;-32
2023/01/11 05:53:47;;;;;;;38.90;15.60;;;;;;;-128.00;-1.00;-1.00;100977;1305;1004753;-36
2023/01/11 05:56:13;;;;;;;35.50;13.20;;;;;;;-128.00;-1.00;-1.00;98918;1305;1003843;-36
2023/01/11 05:58:38;;;;;;;26.60;12.30;;;;;;;-128.00;-1.00;-1.00;100369;1305;1002455;-32
2023/01/11 06:01:04;;;;;;;39.10;19.20;;;;;;;-128.00;-1.00;-1.00;101108;1305;1005404;-31
2023/01/11 06:03:30;;;;;;;26.90;11.50;;;;;;;-128.00;-1.00;-1.00;101138;1304;1003408;-36
2023/01/11 06:05:57;;;;;;;31.00;14.60;;;;;;;-128.00;-1.00;-1.00;100997;1305;1003105;-35
2023/01/11 06:08:22;;;;;;;43.70;17.10;;;;;;;-128.00;-1.00;-1.00;101200;1305;1002769;-35
2023/01/11 06:10:52;;;;;;;33.20;15.90;;;;;;;-128.00;-1.00;-1.00;101174;1305;1003070;-35
2023/01/11 06:15:47;;;;;;;30.10;13.60;;;;;;;-128.00;-1.00;-1.00;100957;1305;1002746;-38
2023/01/11 06:18:14;;;;;;;31.80;14.90;;;;;;;-128.00;-1.00;-1.00;100770;1305;1002783;-35
2023/01/11 06:20:39;;;;;;;39.70;16.20;;;;;;;-128.00;-1.00;-1.00;100709;1305;1004044;-32
2023/01/11 06:23:05;;;;;;;34.10;14.20;;;;;;;-128.00;-1.00;-1.00;101198;1305;1002530;-35
2023/01/11 06:25:31;;;;;;;30.10;13.10;;;;;;;-128.00;-1.00;-1.00;101037;1305;1005071;-35
2023/01/11 06:27:58;;;;;;;17.60;8.20;;;;;;;-128.00;-1.00;-1.00;101041;1305;1003272;-35
2023/01/11 06:30:27;;;;;;;21.50;9.80;;;;;;;-128.00;-1.00;-1.00;101003;1305;1003360;-31
2023/01/11 06:32:52;;;;;;;45.70;13.40;;;;;;;-128.00;-1.00;-1.00;101055;1302;1003254;-35
2023/01/11 06:35:18;;;;;;;25.90;9.70;;;;;;;-128.00;-1.00;-1.00;101163;1305;1003826;-35
2023/01/11 06:37:44;;;;;;;23.70;11.00;;;;;;;-128.00;-1.00;-1.00;101104;1305;1004268;-31
2023/01/11 06:40:10;;;;;;;38.60;14.10;;;;;;;-128.00;-1.00;-1.00;101129;1305;1004400;-31
2023/01/11 06:42:36;;;;;;;37.70;13.10;;;;;;;-128.00;-1.00;-1.00;101055;1305;1004141;-30
2023/01/11 06:45:02;;;;;;;33.60;13.20;;;;;;;-128.00;-1.00;-1.00;101037;1305;1003084;-32
2023/01/11 06:47:27;;;;;;;33.90;15.10;;;;;;;-128.00;-1.00;-1.00;100998;1305;1003036;-35
2023/01/11 06:49:53;;;;;;;23.30;10.90;;;;;;;-128.00;-1.00;-1.00;101138;1305;1003386;-35
2023/01/11 06:52:18;;;;;;;23.80;10.00;;;;;;;-128.00;-1.00;-1.00;100378;1305;1003347;-32
2023/01/11 06:54:44;;;;;;;23.50;10.20;;;;;;;-128.00;-1.00;-1.00;100330;1305;1003865;-31
2023/01/11 06:57:10;;;;;;;48.00;17.00;;;;;;;-128.00;-1.00;-1.00;101060;1305;1003915;-36
2023/01/11 06:59:37;;;;;;;24.70;13.80;;;;;;;-128.00;-1.00;-1.00;101073;1305;1003345;-30
2023/01/11 07:02:03;;;;;;;29.80;15.10;;;;;;;-128.00;-1.00;-1.00;101100;1305;1003818;-36
2023/01/11 07:04:29;;;;;;;38.70;12.40;;;;;;;-128.00;-1.00;-1.00;101090;1305;1003377;-35
2023/01/11 07:06:55;;;;;;;23.10;12.00;;;;;;;-128.00;-1.00;-1.00;101074;1305;1003113;-34
2023/01/11 07:09:21;;;;;;;35.40;17.00;;;;;;;-128.00;-1.00;-1.00;101021;1305;1003220;-31
2023/01/11 07:11:46;;;;;;;32.40;13.50;;;;;;;-128.00;-1.00;-1.00;101025;1305;1004722;-34
2023/01/11 07:14:17;;;;;;;23.90;11.80;;;;;;;-128.00;-1.00;-1.00;101173;1305;1005007;-33
2023/01/11 07:16:43;;;;;;;24.20;12.30;;;;;;;-128.00;-1.00;-1.00;100993;1305;1003814;-34
2023/01/11 07:19:08;;;;;;;22.30;12.10;;;;;;;-128.00;-1.00;-1.00;101073;1305;1002816;-31
2023/01/11 07:21:34;;;;;;;43.00;15.00;;;;;;;-128.00;-1.00;-1.00;101065;1305;1003763;-31
2023/01/11 07:24:01;;;;;;;31.60;11.90;;;;;;;-128.00;-1.00;-1.00;101126;1305;1003100;-36
2023/01/11 07:26:27;;;;;;;28.90;13.00;;;;;;;-128.00;-1.00;-1.00;101120;1302;1002973;-32
2023/01/11 07:28:52;;;;;;;39.20;14.30;;;;;;;-128.00;-1.00;-1.00;101141;1305;1003185;-35
2023/01/11 07:31:18;;;;;;;32.20;13.70;;;;;;;-128.00;-1.00;-1.00;101017;1305;1003095;-31
2023/01/11 07:33:44;;;;;;;31.50;15.00;;;;;;;-128.00;-1.00;-1.00;101136;1305;1002972;-31
2023/01/11 07:36:09;;;;;;;35.00;15.10;;;;;;;-128.00;-1.00;-1.00;101117;1305;1004474;-32
2023/01/11 07:38:35;;;;;;;24.20;11.30;;;;;;;-128.00;-1.00;-1.00;100998;1305;1002789;-36
2023/01/11 07:43:10;;;;;;;38.70;16.80;;;;;;;-128.00;-1.00;-1.00;101036;1305;1003039;-37
2023/01/11 07:43:46;;;;;;;36.70;16.50;;;;;;;-128.00;-1.00;-1.00;101004;1305;1003991;-35
2023/01/11 07:46:11;;;;;;;29.00;14.00;;;;;;;-128.00;-1.00;-1.00;101055;1305;1003051;-34
2023/01/11 07:48:37;;;;;;;24.10;12.00;;;;;;;-128.00;-1.00;-1.00;101046;1305;1003752;-36
2023/01/11 07:51:02;;;;;;;41.40;15.50;;;;;;;-128.00;-1.00;-1.00;101141;1305;1004688;-37
2023/01/11 07:53:29;;;;;;;37.90;15.60;;;;;;;-128.00;-1.00;-1.00;101030;1305;1003033;-31
2023/01/11 07:55:54;;;;;;;43.80;17.30;;;;;;;-128.00;-1.00;-1.00;101053;1305;1002870;-32
2023/01/11 07:58:20;;;;;;;54.20;18.70;;;;;;;-128.00;-1.00;-1.00;101091;1305;1003124;-36
2023/01/11 08:00:45;;;;;;;45.40;17.60;;;;;;;-128.00;-1.00;-1.00;101058;1305;1003062;-34
2023/01/11 08:03:11;;;;;;;31.10;12.40;;;;;;;-128.00;-1.00;-1.00;101144;1305;1003502;-35
2023/01/11 08:05:37;;;;;;;36.40;15.90;;;;;;;-128.00;-1.00;-1.00;101071;1305;1002837;-30
2023/01/11 08:08:03;;;;;;;43.90;15.60;;;;;;;-128.00;-1.00;-1.00;101138;1305;1003075;-35
2023/01/11 08:10:29;;;;;;;23.60;13.10;;;;;;;-128.00;-1.00;-1.00;101041;1305;1003842;-34
2023/01/11 08:15:33;;;;;;;26.40;13.20;;;;;;;-128.00;-1.00;-1.00;101022;1305;1003092;-30
2023/01/11 08:17:59;;;;;;;27.00;12.10;;;;;;;-128.00;-1.00;-1.00;100999;1305;1003725;-37
2023/01/11 08:20:26;;;;;;;42.40;16.20;;;;;;;-128.00;-1.00;-1.00;101064;1305;1003152;-32
2023/01/11 08:22:52;;;;;;;32.60;14.40;;;;;;;-128.00;-1.00;-1.00;101077;1305;1003401;-36
2023/01/11 08:25:17;;;;;;;38.20;15.70;;;;;;;-128.00;-1.00;-1.00;100404;1305;1003486;-35
2023/01/11 08:27:43;;;;;;;36.60;16.90;;;;;;;-128.00;-1.00;-1.00;101066;1305;1002824;-35
2023/01/11 08:30:10;;;;;;;31.20;15.20;;;;;;;-128.00;-1.00;-1.00;101070;1305;1003285;-30
2023/01/11 08:32:35;;;;;;;31.80;14.40;;;;;;;-128.00;-1.00;-1.00;101040;1305;1003265;-29
2023/01/11 08:35:01;;;;;;;29.30;14.70;;;;;;;-128.00;-1.00;-1.00;101040;1305;1004273;-30
2023/01/11 08:37:26;;;;;;;36.20;13.60;;;;;;;-128.00;-1.00;-1.00;101023;1305;1003184;-31
2023/01/11 08:39:53;;;;;;;29.00;12.00;;;;;;;-128.00;-1.00;-1.00;100314;1305;1003590;-31
2023/01/11 08:42:19;;;;;;;26.20;12.50;;;;;;;-128.00;-1.00;-1.00;100900;1305;1004178;-34
2023/01/11 08:44:46;;;;;;;24.20;14.30;;;;;;;-128.00;-1.00;-1.00;100895;1305;1004444;-35
2023/01/11 08:47:12;;;;;;;32.90;13.50;;;;;;;-128.00;-1.00;-1.00;100966;1305;1004537;-36
2023/01/11 08:49:41;;;;;;;19.70;10.80;;;;;;;-128.00;-1.00;-1.00;100997;1305;1004461;-31
2023/01/11 08:52:13;;;;;;;14.80;7.70;;;;;;;-128.00;-1.00;-1.00;100966;1305;1004189;-31
2023/01/11 08:54:40;;;;;;;20.30;8.70;;;;;;;-128.00;-1.00;-1.00;101040;1305;1004563;-36
2023/01/11 08:57:05;;;;;;;23.80;8.10;;;;;;;-128.00;-1.00;-1.00;101124;1305;1003481;-33
2023/01/11 08:59:31;;;;;;;17.80;10.20;;;;;;;-128.00;-1.00;-1.00;101092;1305;1003530;-29
2023/01/11 09:01:57;;;;;;;17.40;8.10;;;;;;;-128.00;-1.00;-1.00;101148;1305;1003269;-33
2023/01/11 09:04:23;;;;;;;16.00;7.90;;;;;;;-128.00;-1.00;-1.00;101129;1305;1003241;-34
2023/01/11 09:06:50;;;;;;;25.10;9.30;;;;;;;-128.00;-1.00;-1.00;101119;1305;1003664;-33
2023/01/11 09:09:15;;;;;;;17.00;8.30;;;;;;;-128.00;-1.00;-1.00;101022;1305;1002320;-34
2023/01/11 09:14:10;;;;;;;17.80;8.90;;;;;;;-128.00;-1.00;-1.00;101125;1305;1003125;-34
2023/01/11 09:16:36;;;;;;;15.80;8.40;;;;;;;-128.00;-1.00;-1.00;101110;1305;1002966;-34
2023/01/11 09:19:02;;;;;;;16.30;8.40;;;;;;;-128.00;-1.00;-1.00;101033;1305;1003366;-35
2023/01/11 09:21:29;;;;;;;13.30;8.00;;;;;;;-128.00;-1.00;-1.00;100983;1305;1003063;-30
2023/01/11 09:23:55;;;;;;;22.20;11.50;;;;;;;-128.00;-1.00;-1.00;99688;1305;1003185;-33
2023/01/11 09:26:21;;;;;;;17.20;9.50;;;;;;;-128.00;-1.00;-1.00;100353;1305;1003922;-31
2023/01/11 09:28:47;;;;;;;25.10;11.00;;;;;;;-128.00;-1.00;-1.00;101052;1305;1003199;-30
2023/01/11 09:31:12;;;;;;;26.60;10.60;;;;;;;-128.00;-1.00;-1.00;101097;1305;1003218;-34
2023/01/11 09:33:38;;;;;;;25.20;12.50;;;;;;;-128.00;-1.00;-1.00;101047;1305;1004578;-30
2023/01/11 09:36:04;;;;;;;27.30;10.40;;;;;;;-128.00;-1.00;-1.00;101057;1305;1003420;-30
2023/01/11 09:38:32;;;;;;;19.30;10.80;;;;;;;-128.00;-1.00;-1.00;100384;1305;1004377;-34
2023/01/11 09:41:12;;;;;;;21.40;10.60;;;;;;;-128.00;-1.00;-1.00;101010;1301;1002208;-30
2023/01/11 09:43:49;;;;;;;21.30;11.60;;;;;;;-128.00;-1.00;-1.00;101061;1305;1004370;-32
2023/01/11 09:46:15;;;;;;;21.50;10.30;;;;;;;-128.00;-1.00;-1.00;100344;1298;1004038;-34
2023/01/11 09:48:43;;;;;;;16.00;10.80;;;;;;;-128.00;-1.00;-1.00;101126;1305;1003440;-31
2023/01/11 09:51:14;;;;;;;22.10;10.70;;;;;;;-128.00;-1.00;-1.00;101109;1302;1003734;-31
2023/01/11 09:53:44;;;;;;;18.10;9.60;;;;;;;-128.00;-1.00;-1.00;101062;1305;1003243;-35
2023/01/11 09:56:11;;;;;;;;;;;;;;;-128.00;-1.00;-1.00;101073;1305;1003121;-30
2023/01/11 09:58:55;;;;;;;14.10;7.90;;;;;;;-128.00;-1.00;-1.00;101081;1305;1002963;-30
2023/01/11 10:01:37;;;;;;;17.20;9.30;;;;;;;-128.00;-1.00;-1.00;101100;1305;1003475;-31
2023/01/11 10:04:31;;;;;;;19.10;11.40;;;;;;;-128.00;-1.00;-1.00;101037;1305;1003109;-35
2023/01/11 10:07:17;;;;;;;22.30;10.10;;;;;;;-128.00;-1.00;-1.00;101101;1305;1002680;-31
2023/01/11 10:10:08;;;;;;;24.50;9.50;;;;;;;-128.00;-1.00;-1.00;101151;1305;1003395;-31
2023/01/11 10:12:59;;;;;;;22.80;7.70;;;;;;;-128.00;-1.00;-1.00;101028;1305;1004163;-34
2023/01/11 10:15:36;;;;;;;20.80;8.80;;;;;;;-128.00;-1.00;-1.00;101104;1305;1003095;-34
2023/01/11 10:18:22;;;;;;;20.70;10.70;;;;;;;-128.00;-1.00;-1.00;101077;1305;1003643;-34
2023/01/11 10:20:51;;;;;;;16.80;9.30;;;;;;;-128.00;-1.00;-1.00;100990;1305;1003012;-30
2023/01/11 10:23:39;;;;;;;23.90;10.40;;;;;;;-128.00;-1.00;-1.00;101027;1305;1003897;-34
2023/01/11 10:26:12;;;;;;;14.70;9.40;;;;;;;-128.00;-1.00;-1.00;101103;1305;1003639;-35
2023/01/11 10:29:02;;;;;;;20.90;11.10;;;;;;;-128.00;-1.00;-1.00;101075;1304;1003050;-35
2023/01/11 10:31:43;;;;;;;20.70;8.80;;;;;;;-128.00;-1.00;-1.00;101123;1304;1002551;-35
2023/01/11 10:34:35;;;;;;;15.50;10.20;;;;;;;-128.00;-1.00;-1.00;101109;1305;1003157;-31
2023/01/11 10:42:51;;;;;;;13.10;8.20;;;;;;;-128.00;-1.00;-1.00;101017;1305;1004099;-34
2023/01/11 10:45:17;;;;;;;17.10;8.60;;;;;;;-128.00;-1.00;-1.00;101036;1305;1003072;-35
2023/01/11 10:47:50;;;;;;;23.40;10.00;;;;;;;-128.00;-1.00;-1.00;101175;1305;1004085;-35
2023/01/11 10:50:33;;;;;;;22.00;9.70;;;;;;;-128.00;-1.00;-1.00;101045;1305;1004057;-35
2023/01/11 10:53:11;;;;;;;14.70;7.40;;;;;;;-128.00;-1.00;-1.00;101021;1303;1003014;-31
2023/01/11 10:55:43;;;;;;;14.40;9.10;;;;;;;-128.00;-1.00;-1.00;101038;1305;1003038;-31
2023/01/11 10:58:33;;;;;;;19.00;8.80;;;;;;;-128.00;-1.00;-1.00;101116;1305;1004918;-31
2023/01/11 11:01:07;;;;;;;11.30;8.10;;;;;;;-128.00;-1.00;-1.00;101124;1305;1002419;-31
2023/01/11 11:03:57;;;;;;;17.00;9.80;;;;;;;-128.00;-1.00;-1.00;101118;1305;1003110;-31
2023/01/11 11:46:32;;;;;;;12.20;4.80;;;;;;;-19.78;66.68;79491.27;103430;1298;1002906;-30
2023/01/11 11:49:15;;;;;;;9.80;5.10;;;;;;;-128.00;-1.00;-1.00;100569;1304;1005170;-30
2023/01/11 11:51:42;;;;;;;9.20;4.70;;;;;;;-128.00;-1.00;-1.00;100847;1306;1004757;-32
2023/01/11 11:54:27;;;;;;;9.90;4.90;;;;;;;-128.00;-1.00;-1.00;100740;1306;1004548;-34
2023/01/11 11:56:53;;;;;;;9.50;4.80;;;;;;;-128.00;-1.00;-1.00;100827;1306;1004575;-34
2023/01/11 11:59:20;;;;;;;10.80;4.60;;;;;;;-128.00;-1.00;-1.00;100855;1306;1004415;-30
2023/01/11 12:01:48;;;;;;;6.70;4.10;;;;;;;-128.00;-1.00;-1.00;100889;1306;1005156;-30
2023/01/11 12:04:18;;;;;;;9.80;5.00;;;;;;;-128.00;-1.00;-1.00;100924;1306;1005180;-33
2023/01/11 12:06:45;;;;;;;11.90;4.80;;;;;;;-128.00;-1.00;-1.00;100730;1306;1005342;-31
2023/01/11 12:09:20;;;;;;;5.90;3.60;;;;;;;-128.00;-1.00;-1.00;100882;1306;1003556;-36
2023/01/11 12:11:45;;;;;;;12.80;4.80;;;;;;;-128.00;-1.00;-1.00;100925;1306;1004551;-36
2023/01/11 12:14:16;;;;;;;6.90;3.80;;;;;;;-128.00;-1.00;-1.00;100873;1306;1004876;-36
2023/01/11 12:16:43;;;;;;;15.50;3.70;;;;;;;-128.00;-1.00;-1.00;100894;1306;1005531;-36
2023/01/11 12:19:28;;;;;;;11.40;3.90;;;;;;;-128.00;-1.00;-1.00;100883;1306;1004543;-35
2023/01/11 12:22:18;;;;;;;3.40;2.60;;;;;;;-128.00;-1.00;-1.00;100898;1306;1004979;-32
2023/01/11 12:24:45;;;;;;;7.80;3.50;;;;;;;-128.00;-1.00;-1.00;100851;1306;1004606;-36
2023/01/11 12:27:20;;;;;;;3.30;2.40;;;;;;;-128.00;-1.00;-1.00;100886;1306;1003905;-31
2023/01/11 12:30:02;;;;;;;6.20;3.10;;;;;;;-128.00;-1.00;-1.00;100924;1306;1004806;-35
2023/01/11 12:32:34;;;;;;;5.80;3.30;;;;;;;-128.00;-1.00;-1.00;100796;1306;1003846;-35
2023/01/11 12:35:12;;;;;;;9.50;3.10;;;;;;;-128.00;-1.00;-1.00;100861;1300;1004529;-31
2023/01/11 12:37:47;;;;;;;7.30;3.60;;;;;;;-128.00;-1.00;-1.00;100833;1304;1004207;-35
2023/01/11 12:40:25;;;;;;;7.70;3.40;;;;;;;-128.00;-1.00;-1.00;100842;1306;1003854;-35
2023/01/11 12:43:12;;;;;;;8.10;4.00;;;;;;;-128.00;-1.00;-1.00;100836;1306;1004400;-31
2023/01/11 12:45:56;;;;;;;160.70;59.50;;;;;;;-128.00;-1.00;-1.00;100863;1306;1004445;-35
2023/01/11 12:48:31;;;;;;;32.90;16.40;;;;;;;-128.00;-1.00;-1.00;100883;1306;1004702;-35
2023/01/11 12:51:29;;;;;;;49.00;33.80;;;;;;;-128.00;-1.00;-1.00;100919;1306;1003778;-36
2023/01/11 12:54:11;;;;;;;13.10;8.10;;;;;;;-128.00;-1.00;-1.00;100815;1306;1004288;-33
2023/01/11 12:57:02;;;;;;;9.80;4.90;;;;;;;-128.00;-1.00;-1.00;100877;1306;1005156;-35
2023/01/11 12:59:51;;;;;;;4.40;3.10;;;;;;;-128.00;-1.00;-1.00;100756;1304;1004028;-31
2023/01/11 13:02:39;;;;;;;26.90;18.50;;;;;;;-128.00;-1.00;-1.00;100838;1306;1004806;-35
2023/01/11 13:05:17;;;;;;;218.20;94.30;;;;;;;-128.00;-1.00;-1.00;100944;1306;1004478;-30
2023/01/11 13:08:09;;;;;;;336.80;138.80;;;;;;;-128.00;-1.00;-1.00;100909;1306;1004207;-35